sensor_id;sensor_type;location;lat;lon;timestamp;P1;durP1;ratioP1;P2;durP2;ratioP2
68144;SDS011;55400;51.824;-0.196;2022-10-29T00:02:22;51.08;;;8.23;;
68144;SDS011;55400;51.824;-0.196;2022-10-29T00:04:47;25.88;;;8.13;;
68144;SDS011;55400;51.824;-0.196;2022-10-29T00:07:13;23.45;;;7.13;;
68144;SDS011;55400;51.824;-0.196;2022-10-29T00:09:39;24.98;;;7.28;;
68144;SDS011;55400;51.824;-0.196;2022-10-29T00:12:04;21.90;;;6.30;;
68144;SDS011;55400;51.824;-0.196;2022-10-29T00:14:30;17.75;;;5.18;;
68144;SDS011;55400;51.824;-0.196;2022-10-29T00:16:55;15.50;;;4.55;;
68144;SDS011;55400;51.824;-0.196;2022-10-29T00:19:21;19.77;;;4.60;;
68144;SDS011;55400;51.824;-0.196;2022-10-29T00:21:48;17.60;;;4.32;;
68144;SDS011;55400;51.824;-0.196;2022-10-29T00:24:15;16.10;;;5.20;;
68144;SDS011;55400;51.824;-0.196;2022-10-29T00:26:41;19.25;;;5.53;;
68144;SDS011;55400;51.824;-0.196;2022-10-29T00:29:06;20.25;;;6.05;;
68144;SDS011;55400;51.824;-0.196;2022-10-29T00:31:31;19.58;;;5.35;;
68144;SDS011;55400;51.824;-0.196;2022-10-29T00:33:57;21.45;;;5.25;;
68144;SDS011;55400;51.824;-0.196;2022-10-29T00:36:24;23.92;;;6.30;;
68144;SDS011;55400;51.824;-0.196;2022-10-29T00:38:52;19.25;;;5.32;;
68144;SDS011;55400;51.824;-0.196;2022-10-29T00:41:19;16.05;;;5.82;;
68144;SDS011;55400;51.824;-0.196;2022-10-29T00:43:47;27.23;;;8.90;;
68144;SDS011;55400;51.824;-0.196;2022-10-29T00:46:33;23.95;;;7.95;;
68144;SDS011;55400;51.824;-0.196;2022-10-29T00:51:26;27.88;;;8.48;;
68144;SDS011;55400;51.824;-0.196;2022-10-29T00:54:05;30.52;;;9.30;;
68144;SDS011;55400;51.824;-0.196;2022-10-29T00:56:41;28.58;;;7.00;;
68144;SDS011;55400;51.824;-0.196;2022-10-29T00:59:11;33.42;;;7.72;;
68144;SDS011;55400;51.824;-0.196;2022-10-29T01:01:40;24.17;;;6.65;;
68144;SDS011;55400;51.824;-0.196;2022-10-29T01:04:07;23.00;;;6.50;;
68144;SDS011;55400;51.824;-0.196;2022-10-29T01:06:35;18.55;;;6.03;;
68144;SDS011;55400;51.824;-0.196;2022-10-29T01:09:01;20.45;;;5.63;;
68144;SDS011;55400;51.824;-0.196;2022-10-29T01:20:21;17.98;;;5.57;;
68144;SDS011;55400;51.824;-0.196;2022-10-29T01:33:54;15.27;;;5.82;;
68144;SDS011;55400;51.824;-0.196;2022-10-29T01:42:37;20.20;;;4.93;;
68144;SDS011;55400;51.824;-0.196;2022-10-29T01:47:46;16.98;;;4.88;;
68144;SDS011;55400;51.824;-0.196;2022-10-29T01:50:18;18.48;;;4.88;;
68144;SDS011;55400;51.824;-0.196;2022-10-29T01:52:47;18.88;;;5.15;;
68144;SDS011;55400;51.824;-0.196;2022-10-29T01:55:21;20.60;;;5.20;;
68144;SDS011;55400;51.824;-0.196;2022-10-29T01:57:51;17.48;;;4.65;;
68144;SDS011;55400;51.824;-0.196;2022-10-29T02:00:18;18.15;;;4.78;;
68144;SDS011;55400;51.824;-0.196;2022-10-29T02:08:53;17.85;;;3.60;;
68144;SDS011;55400;51.824;-0.196;2022-10-29T02:12:07;15.80;;;4.93;;
68144;SDS011;55400;51.824;-0.196;2022-10-29T02:14:37;35.78;;;5.10;;
68144;SDS011;55400;51.824;-0.196;2022-10-29T02:17:07;18.25;;;5.25;;
68144;SDS011;55400;51.824;-0.196;2022-10-29T02:19:33;10.05;;;4.20;;
68144;SDS011;55400;51.824;-0.196;2022-10-29T02:22:00;18.58;;;4.88;;
68144;SDS011;55400;51.824;-0.196;2022-10-29T02:24:25;13.23;;;3.70;;
68144;SDS011;55400;51.824;-0.196;2022-10-29T02:26:51;20.55;;;4.50;;
68144;SDS011;55400;51.824;-0.196;2022-10-29T02:29:17;14.13;;;4.32;;
68144;SDS011;55400;51.824;-0.196;2022-10-29T02:31:43;13.93;;;4.07;;
68144;SDS011;55400;51.824;-0.196;2022-10-29T02:34:09;13.70;;;4.20;;
68144;SDS011;55400;51.824;-0.196;2022-10-29T02:36:34;17.52;;;4.30;;
68144;SDS011;55400;51.824;-0.196;2022-10-29T02:39:00;20.30;;;4.45;;
68144;SDS011;55400;51.824;-0.196;2022-10-29T02:41:25;21.05;;;4.40;;
68144;SDS011;55400;51.824;-0.196;2022-10-29T02:43:51;15.25;;;4.22;;
68144;SDS011;55400;51.824;-0.196;2022-10-29T02:46:17;14.00;;;3.80;;
68144;SDS011;55400;51.824;-0.196;2022-10-29T02:48:45;19.08;;;3.60;;
68144;SDS011;55400;51.824;-0.196;2022-10-29T02:51:11;12.50;;;3.80;;
68144;SDS011;55400;51.824;-0.196;2022-10-29T02:53:37;8.13;;;3.00;;
68144;SDS011;55400;51.824;-0.196;2022-10-29T02:56:03;10.30;;;4.07;;
68144;SDS011;55400;51.824;-0.196;2022-10-29T02:58:29;19.77;;;3.85;;
68144;SDS011;55400;51.824;-0.196;2022-10-29T03:00:54;15.65;;;3.78;;
68144;SDS011;55400;51.824;-0.196;2022-10-29T03:03:20;13.77;;;3.42;;
68144;SDS011;55400;51.824;-0.196;2022-10-29T03:05:45;12.50;;;3.50;;
68144;SDS011;55400;51.824;-0.196;2022-10-29T03:08:11;9.73;;;3.00;;
68144;SDS011;55400;51.824;-0.196;2022-10-29T03:10:36;17.88;;;4.20;;
68144;SDS011;55400;51.824;-0.196;2022-10-29T03:13:02;7.78;;;3.00;;
68144;SDS011;55400;51.824;-0.196;2022-10-29T03:15:27;11.02;;;3.33;;
68144;SDS011;55400;51.824;-0.196;2022-10-29T03:17:53;12.70;;;3.10;;
68144;SDS011;55400;51.824;-0.196;2022-10-29T03:20:18;12.77;;;3.20;;
68144;SDS011;55400;51.824;-0.196;2022-10-29T03:22:44;11.25;;;2.92;;
68144;SDS011;55400;51.824;-0.196;2022-10-29T03:25:09;11.95;;;3.22;;
68144;SDS011;55400;51.824;-0.196;2022-10-29T03:27:41;6.95;;;2.70;;
68144;SDS011;55400;51.824;-0.196;2022-10-29T03:30:08;14.48;;;3.45;;
68144;SDS011;55400;51.824;-0.196;2022-10-29T03:32:38;9.82;;;2.97;;
68144;SDS011;55400;51.824;-0.196;2022-10-29T03:35:08;9.38;;;2.88;;
68144;SDS011;55400;51.824;-0.196;2022-10-29T03:37:34;10.35;;;2.75;;
68144;SDS011;55400;51.824;-0.196;2022-10-29T03:40:00;12.02;;;3.40;;
68144;SDS011;55400;51.824;-0.196;2022-10-29T03:42:26;15.50;;;3.47;;
68144;SDS011;55400;51.824;-0.196;2022-10-29T03:44:51;16.83;;;3.60;;
68144;SDS011;55400;51.824;-0.196;2022-10-29T03:47:17;12.75;;;3.30;;
68144;SDS011;55400;51.824;-0.196;2022-10-29T03:49:42;13.02;;;3.10;;
68144;SDS011;55400;51.824;-0.196;2022-10-29T03:52:07;9.60;;;2.67;;
68144;SDS011;55400;51.824;-0.196;2022-10-29T03:54:33;14.07;;;3.40;;
68144;SDS011;55400;51.824;-0.196;2022-10-29T03:56:58;10.13;;;3.20;;
68144;SDS011;55400;51.824;-0.196;2022-10-29T03:59:24;19.35;;;3.30;;
68144;SDS011;55400;51.824;-0.196;2022-10-29T04:01:49;13.52;;;3.47;;
68144;SDS011;55400;51.824;-0.196;2022-10-29T04:04:14;9.40;;;2.95;;
68144;SDS011;55400;51.824;-0.196;2022-10-29T04:06:40;9.40;;;2.88;;
68144;SDS011;55400;51.824;-0.196;2022-10-29T04:09:05;12.68;;;2.78;;
68144;SDS011;55400;51.824;-0.196;2022-10-29T04:11:30;8.68;;;2.45;;
68144;SDS011;55400;51.824;-0.196;2022-10-29T04:13:56;11.70;;;2.90;;
68144;SDS011;55400;51.824;-0.196;2022-10-29T04:16:21;15.20;;;3.63;;
68144;SDS011;55400;51.824;-0.196;2022-10-29T04:18:47;20.05;;;3.33;;
68144;SDS011;55400;51.824;-0.196;2022-10-29T04:21:13;11.45;;;2.97;;
68144;SDS011;55400;51.824;-0.196;2022-10-29T04:23:40;9.15;;;2.92;;
68144;SDS011;55400;51.824;-0.196;2022-10-29T04:26:05;19.52;;;4.30;;
68144;SDS011;55400;51.824;-0.196;2022-10-29T04:28:30;11.73;;;3.47;;
68144;SDS011;55400;51.824;-0.196;2022-10-29T04:30:56;13.07;;;3.60;;
68144;SDS011;55400;51.824;-0.196;2022-10-29T04:33:21;12.77;;;4.25;;
68144;SDS011;55400;51.824;-0.196;2022-10-29T04:35:50;15.50;;;3.75;;
68144;SDS011;55400;51.824;-0.196;2022-10-29T04:38:17;10.02;;;3.50;;
68144;SDS011;55400;51.824;-0.196;2022-10-29T04:40:43;14.70;;;3.85;;
68144;SDS011;55400;51.824;-0.196;2022-10-29T04:43:09;14.98;;;3.70;;
68144;SDS011;55400;51.824;-0.196;2022-10-29T04:45:34;10.93;;;3.20;;
68144;SDS011;55400;51.824;-0.196;2022-10-29T04:48:00;14.95;;;3.90;;
68144;SDS011;55400;51.824;-0.196;2022-10-29T04:50:29;11.02;;;3.33;;
68144;SDS011;55400;51.824;-0.196;2022-10-29T04:52:59;12.68;;;3.55;;
68144;SDS011;55400;51.824;-0.196;2022-10-29T04:55:25;10.68;;;3.08;;
68144;SDS011;55400;51.824;-0.196;2022-10-29T04:57:51;15.27;;;4.07;;
68144;SDS011;55400;51.824;-0.196;2022-10-29T05:00:17;12.27;;;2.88;;
68144;SDS011;55400;51.824;-0.196;2022-10-29T05:02:46;11.90;;;3.00;;
68144;SDS011;55400;51.824;-0.196;2022-10-29T05:05:15;10.43;;;2.88;;
68144;SDS011;55400;51.824;-0.196;2022-10-29T05:07:44;12.13;;;2.80;;
68144;SDS011;55400;51.824;-0.196;2022-10-29T05:10:10;15.88;;;3.22;;
68144;SDS011;55400;51.824;-0.196;2022-10-29T05:12:36;13.63;;;3.05;;
68144;SDS011;55400;51.824;-0.196;2022-10-29T05:15:02;9.85;;;3.00;;
68144;SDS011;55400;51.824;-0.196;2022-10-29T05:17:28;8.80;;;2.50;;
68144;SDS011;55400;51.824;-0.196;2022-10-29T05:19:53;10.05;;;2.30;;
68144;SDS011;55400;51.824;-0.196;2022-10-29T05:22:19;9.88;;;2.65;;
68144;SDS011;55400;51.824;-0.196;2022-10-29T05:24:53;7.60;;;2.08;;
68144;SDS011;55400;51.824;-0.196;2022-10-29T05:27:22;7.95;;;2.45;;
68144;SDS011;55400;51.824;-0.196;2022-10-29T05:29:47;7.97;;;2.53;;
68144;SDS011;55400;51.824;-0.196;2022-10-29T05:32:13;7.53;;;2.40;;
68144;SDS011;55400;51.824;-0.196;2022-10-29T05:34:38;7.57;;;2.25;;
68144;SDS011;55400;51.824;-0.196;2022-10-29T05:37:03;9.60;;;2.90;;
68144;SDS011;55400;51.824;-0.196;2022-10-29T05:39:29;13.02;;;2.47;;
68144;SDS011;55400;51.824;-0.196;2022-10-29T05:41:54;9.02;;;2.35;;
68144;SDS011;55400;51.824;-0.196;2022-10-29T05:44:20;9.55;;;2.60;;
68144;SDS011;55400;51.824;-0.196;2022-10-29T05:46:47;14.30;;;2.72;;
68144;SDS011;55400;51.824;-0.196;2022-10-29T05:49:13;13.77;;;3.13;;
68144;SDS011;55400;51.824;-0.196;2022-10-29T05:51:39;10.43;;;2.85;;
68144;SDS011;55400;51.824;-0.196;2022-10-29T05:54:04;10.68;;;3.00;;
68144;SDS011;55400;51.824;-0.196;2022-10-29T05:56:29;10.93;;;2.83;;
68144;SDS011;55400;51.824;-0.196;2022-10-29T05:58:55;10.00;;;2.60;;
68144;SDS011;55400;51.824;-0.196;2022-10-29T06:01:20;11.77;;;2.30;;
68144;SDS011;55400;51.824;-0.196;2022-10-29T06:03:46;15.05;;;3.33;;
68144;SDS011;55400;51.824;-0.196;2022-10-29T06:06:11;10.25;;;2.88;;
68144;SDS011;55400;51.824;-0.196;2022-10-29T06:08:36;13.45;;;3.67;;
68144;SDS011;55400;51.824;-0.196;2022-10-29T06:11:02;21.85;;;3.20;;
68144;SDS011;55400;51.824;-0.196;2022-10-29T06:13:28;20.42;;;3.17;;
68144;SDS011;55400;51.824;-0.196;2022-10-29T06:15:57;12.77;;;3.63;;
68144;SDS011;55400;51.824;-0.196;2022-10-29T06:18:27;10.35;;;3.33;;
68144;SDS011;55400;51.824;-0.196;2022-10-29T06:20:53;12.60;;;2.63;;
68144;SDS011;55400;51.824;-0.196;2022-10-29T06:23:22;11.23;;;2.72;;
68144;SDS011;55400;51.824;-0.196;2022-10-29T06:25:47;13.13;;;3.10;;
68144;SDS011;55400;51.824;-0.196;2022-10-29T06:28:13;7.70;;;2.72;;
68144;SDS011;55400;51.824;-0.196;2022-10-29T06:30:47;10.88;;;3.47;;
68144;SDS011;55400;51.824;-0.196;2022-10-29T06:33:13;8.75;;;2.70;;
68144;SDS011;55400;51.824;-0.196;2022-10-29T06:35:39;7.68;;;2.35;;
68144;SDS011;55400;51.824;-0.196;2022-10-29T06:38:05;8.15;;;2.97;;
68144;SDS011;55400;51.824;-0.196;2022-10-29T06:40:30;15.40;;;2.97;;
68144;SDS011;55400;51.824;-0.196;2022-10-29T06:42:59;9.82;;;2.97;;
68144;SDS011;55400;51.824;-0.196;2022-10-29T06:45:26;9.05;;;3.15;;
68144;SDS011;55400;51.824;-0.196;2022-10-29T06:47:52;11.07;;;3.00;;
68144;SDS011;55400;51.824;-0.196;2022-10-29T06:50:18;9.35;;;2.60;;
68144;SDS011;55400;51.824;-0.196;2022-10-29T06:52:52;11.63;;;2.92;;
68144;SDS011;55400;51.824;-0.196;2022-10-29T06:55:20;8.93;;;2.30;;
68144;SDS011;55400;51.824;-0.196;2022-10-29T06:57:45;10.07;;;3.75;;
68144;SDS011;55400;51.824;-0.196;2022-10-29T07:00:11;8.55;;;2.45;;
68144;SDS011;55400;51.824;-0.196;2022-10-29T07:02:46;3.85;;;2.10;;
68144;SDS011;55400;51.824;-0.196;2022-10-29T07:05:11;12.02;;;3.05;;
68144;SDS011;55400;51.824;-0.196;2022-10-29T07:07:37;13.73;;;2.72;;
68144;SDS011;55400;51.824;-0.196;2022-10-29T07:10:02;10.90;;;2.30;;
68144;SDS011;55400;51.824;-0.196;2022-10-29T07:12:28;9.02;;;2.55;;
68144;SDS011;55400;51.824;-0.196;2022-10-29T07:14:53;20.08;;;3.10;;
68144;SDS011;55400;51.824;-0.196;2022-10-29T07:17:18;10.73;;;2.28;;
68144;SDS011;55400;51.824;-0.196;2022-10-29T07:19:44;10.18;;;3.20;;
68144;SDS011;55400;51.824;-0.196;2022-10-29T07:22:09;9.23;;;3.20;;
68144;SDS011;55400;51.824;-0.196;2022-10-29T07:24:34;9.52;;;2.58;;
68144;SDS011;55400;51.824;-0.196;2022-10-29T07:27:00;10.55;;;2.25;;
68144;SDS011;55400;51.824;-0.196;2022-10-29T07:29:26;9.15;;;3.10;;
68144;SDS011;55400;51.824;-0.196;2022-10-29T07:31:51;10.73;;;2.47;;
68144;SDS011;55400;51.824;-0.196;2022-10-29T07:34:16;12.35;;;2.72;;
68144;SDS011;55400;51.824;-0.196;2022-10-29T07:36:42;13.65;;;2.55;;
68144;SDS011;55400;51.824;-0.196;2022-10-29T07:39:07;11.93;;;2.80;;
68144;SDS011;55400;51.824;-0.196;2022-10-29T07:41:33;19.05;;;2.63;;
68144;SDS011;55400;51.824;-0.196;2022-10-29T07:43:58;8.85;;;1.95;;
68144;SDS011;55400;51.824;-0.196;2022-10-29T07:46:24;8.82;;;2.17;;
68144;SDS011;55400;51.824;-0.196;2022-10-29T07:48:49;11.50;;;2.10;;
68144;SDS011;55400;51.824;-0.196;2022-10-29T07:51:14;11.25;;;2.30;;
68144;SDS011;55400;51.824;-0.196;2022-10-29T07:53:40;10.30;;;2.15;;
68144;SDS011;55400;51.824;-0.196;2022-10-29T07:56:05;13.35;;;1.80;;
68144;SDS011;55400;51.824;-0.196;2022-10-29T07:58:31;8.13;;;2.40;;
68144;SDS011;55400;51.824;-0.196;2022-10-29T08:00:58;4.18;;;1.88;;
68144;SDS011;55400;51.824;-0.196;2022-10-29T08:03:23;10.77;;;2.40;;
68144;SDS011;55400;51.824;-0.196;2022-10-29T08:05:49;6.60;;;2.28;;
68144;SDS011;55400;51.824;-0.196;2022-10-29T08:08:14;8.90;;;2.45;;
68144;SDS011;55400;51.824;-0.196;2022-10-29T08:10:41;10.43;;;2.67;;
68144;SDS011;55400;51.824;-0.196;2022-10-29T08:13:08;12.05;;;2.67;;
68144;SDS011;55400;51.824;-0.196;2022-10-29T08:15:34;6.15;;;2.05;;
68144;SDS011;55400;51.824;-0.196;2022-10-29T08:18:00;10.63;;;2.70;;
68144;SDS011;55400;51.824;-0.196;2022-10-29T08:20:27;9.18;;;2.45;;
68144;SDS011;55400;51.824;-0.196;2022-10-29T08:22:53;8.35;;;2.10;;
68144;SDS011;55400;51.824;-0.196;2022-10-29T08:25:19;15.18;;;2.92;;
68144;SDS011;55400;51.824;-0.196;2022-10-29T08:27:44;10.13;;;2.45;;
68144;SDS011;55400;51.824;-0.196;2022-10-29T08:30:19;14.25;;;3.53;;
68144;SDS011;55400;51.824;-0.196;2022-10-29T08:32:44;8.80;;;3.42;;
68144;SDS011;55400;51.824;-0.196;2022-10-29T08:35:10;11.48;;;3.50;;
68144;SDS011;55400;51.824;-0.196;2022-10-29T08:37:40;11.63;;;3.40;;
68144;SDS011;55400;51.824;-0.196;2022-10-29T08:40:08;17.00;;;3.03;;
68144;SDS011;55400;51.824;-0.196;2022-10-29T08:45:48;16.65;;;2.67;;
68144;SDS011;55400;51.824;-0.196;2022-10-29T08:53:48;6.22;;;2.50;;
68144;SDS011;55400;51.824;-0.196;2022-10-29T08:56:20;14.18;;;3.10;;
68144;SDS011;55400;51.824;-0.196;2022-10-29T09:01:34;15.90;;;3.95;;
68144;SDS011;55400;51.824;-0.196;2022-10-29T09:04:00;8.05;;;2.65;;
68144;SDS011;55400;51.824;-0.196;2022-10-29T09:12:01;11.65;;;2.85;;
68144;SDS011;55400;51.824;-0.196;2022-10-29T09:14:51;10.65;;;3.03;;
68144;SDS011;55400;51.824;-0.196;2022-10-29T09:17:29;10.68;;;2.60;;
68144;SDS011;55400;51.824;-0.196;2022-10-29T09:25:45;7.85;;;2.40;;
68144;SDS011;55400;51.824;-0.196;2022-10-29T09:33:45;12.13;;;2.53;;
68144;SDS011;55400;51.824;-0.196;2022-10-29T09:36:17;6.13;;;2.55;;
68144;SDS011;55400;51.824;-0.196;2022-10-29T09:38:50;11.80;;;3.10;;
68144;SDS011;55400;51.824;-0.196;2022-10-29T09:41:21;12.90;;;3.25;;
68144;SDS011;55400;51.824;-0.196;2022-10-29T09:43:58;12.45;;;3.92;;
68144;SDS011;55400;51.824;-0.196;2022-10-29T09:52:31;10.27;;;3.20;;
68144;SDS011;55400;51.824;-0.196;2022-10-29T09:55:00;15.52;;;3.20;;
68144;SDS011;55400;51.824;-0.196;2022-10-29T09:57:28;15.20;;;3.53;;
68144;SDS011;55400;51.824;-0.196;2022-10-29T10:05:54;9.75;;;3.53;;
68144;SDS011;55400;51.824;-0.196;2022-10-29T10:08:02;11.02;;;3.90;;
68144;SDS011;55400;51.824;-0.196;2022-10-29T10:10:33;10.60;;;4.13;;
68144;SDS011;55400;51.824;-0.196;2022-10-29T10:13:01;15.10;;;4.28;;
68144;SDS011;55400;51.824;-0.196;2022-10-29T10:15:32;17.90;;;4.50;;
68144;SDS011;55400;51.824;-0.196;2022-10-29T10:22:54;20.60;;;4.43;;
68144;SDS011;55400;51.824;-0.196;2022-10-29T10:25:36;10.05;;;3.80;;
68144;SDS011;55400;51.824;-0.196;2022-10-29T10:28:04;13.13;;;4.53;;
68144;SDS011;55400;51.824;-0.196;2022-10-29T10:30:40;11.77;;;4.10;;
68144;SDS011;55400;51.824;-0.196;2022-10-29T10:33:10;14.68;;;4.15;;
68144;SDS011;55400;51.824;-0.196;2022-10-29T10:36:07;25.17;;;4.88;;
68144;SDS011;55400;51.824;-0.196;2022-10-29T10:38:40;14.10;;;3.67;;
68144;SDS011;55400;51.824;-0.196;2022-10-29T10:41:09;18.23;;;4.90;;
68144;SDS011;55400;51.824;-0.196;2022-10-29T10:51:35;14.30;;;4.68;;
68144;SDS011;55400;51.824;-0.196;2022-10-29T10:54:10;15.18;;;4.55;;
68144;SDS011;55400;51.824;-0.196;2022-10-29T10:57:47;16.05;;;4.25;;
68144;SDS011;55400;51.824;-0.196;2022-10-29T11:05:29;21.80;;;4.65;;
68144;SDS011;55400;51.824;-0.196;2022-10-29T11:08:02;10.75;;;3.78;;
68144;SDS011;55400;51.824;-0.196;2022-10-29T11:10:30;20.45;;;5.32;;
68144;SDS011;55400;51.824;-0.196;2022-10-29T11:13:04;11.32;;;4.10;;
68144;SDS011;55400;51.824;-0.196;2022-10-29T11:15:36;13.15;;;4.53;;
68144;SDS011;55400;51.824;-0.196;2022-10-29T11:18:15;11.90;;;4.22;;
68144;SDS011;55400;51.824;-0.196;2022-10-29T11:20:44;13.63;;;4.10;;
68144;SDS011;55400;51.824;-0.196;2022-10-29T11:26:06;21.42;;;4.47;;
68144;SDS011;55400;51.824;-0.196;2022-10-29T11:28:57;9.65;;;3.75;;
68144;SDS011;55400;51.824;-0.196;2022-10-29T11:31:37;19.25;;;4.13;;
68144;SDS011;55400;51.824;-0.196;2022-10-29T11:34:22;12.63;;;4.35;;
68144;SDS011;55400;51.824;-0.196;2022-10-29T11:37:02;16.90;;;4.15;;
68144;SDS011;55400;51.824;-0.196;2022-10-29T11:39:44;16.65;;;4.32;;
68144;SDS011;55400;51.824;-0.196;2022-10-29T11:42:14;13.10;;;3.67;;
68144;SDS011;55400;51.824;-0.196;2022-10-29T11:44:40;14.88;;;3.65;;
68144;SDS011;55400;51.824;-0.196;2022-10-29T11:47:43;15.63;;;4.70;;
68144;SDS011;55400;51.824;-0.196;2022-10-29T11:58:34;10.85;;;3.90;;
68144;SDS011;55400;51.824;-0.196;2022-10-29T12:06:40;8.05;;;3.65;;
68144;SDS011;55400;51.824;-0.196;2022-10-29T12:14:40;16.67;;;6.05;;
68144;SDS011;55400;51.824;-0.196;2022-10-29T12:20:00;18.63;;;4.45;;
68144;SDS011;55400;51.824;-0.196;2022-10-29T12:22:56;18.13;;;4.38;;
68144;SDS011;55400;51.824;-0.196;2022-10-29T12:30:33;9.18;;;4.38;;
68144;SDS011;55400;51.824;-0.196;2022-10-29T12:33:04;12.80;;;3.88;;
68144;SDS011;55400;51.824;-0.196;2022-10-29T12:35:41;9.37;;;4.57;;
68144;SDS011;55400;51.824;-0.196;2022-10-29T12:40:59;14.55;;;4.45;;
68144;SDS011;55400;51.824;-0.196;2022-10-29T12:43:29;10.15;;;3.65;;
68144;SDS011;55400;51.824;-0.196;2022-10-29T12:48:40;12.27;;;3.47;;
68144;SDS011;55400;51.824;-0.196;2022-10-29T12:56:53;13.13;;;4.10;;
68144;SDS011;55400;51.824;-0.196;2022-10-29T13:01:49;13.07;;;3.65;;
68144;SDS011;55400;51.824;-0.196;2022-10-29T13:04:28;14.18;;;3.88;;
68144;SDS011;55400;51.824;-0.196;2022-10-29T13:07:04;24.40;;;4.43;;
68144;SDS011;55400;51.824;-0.196;2022-10-29T13:12:08;13.88;;;3.83;;
68144;SDS011;55400;51.824;-0.196;2022-10-29T13:17:31;18.42;;;3.60;;
68144;SDS011;55400;51.824;-0.196;2022-10-29T13:19:59;9.85;;;3.92;;
68144;SDS011;55400;51.824;-0.196;2022-10-29T13:22:51;9.32;;;3.75;;
68144;SDS011;55400;51.824;-0.196;2022-10-29T13:25:28;18.13;;;3.72;;
68144;SDS011;55400;51.824;-0.196;2022-10-29T13:30:31;9.00;;;3.70;;
68144;SDS011;55400;51.824;-0.196;2022-10-29T13:32:57;9.25;;;3.85;;
68144;SDS011;55400;51.824;-0.196;2022-10-29T13:37:54;10.55;;;4.05;;
68144;SDS011;55400;51.824;-0.196;2022-10-29T13:40:41;12.88;;;3.70;;
68144;SDS011;55400;51.824;-0.196;2022-10-29T13:43:16;19.15;;;4.47;;
68144;SDS011;55400;51.824;-0.196;2022-10-29T13:45:47;10.07;;;3.55;;
68144;SDS011;55400;51.824;-0.196;2022-10-29T13:51:03;15.75;;;3.92;;
68144;SDS011;55400;51.824;-0.196;2022-10-29T13:53:38;25.10;;;3.75;;
68144;SDS011;55400;51.824;-0.196;2022-10-29T13:56:33;12.32;;;3.60;;
68144;SDS011;55400;51.824;-0.196;2022-10-29T13:59:06;10.77;;;2.90;;
68144;SDS011;55400;51.824;-0.196;2022-10-29T14:01:44;10.35;;;3.47;;
68144;SDS011;55400;51.824;-0.196;2022-10-29T14:04:29;12.15;;;4.13;;
68144;SDS011;55400;51.824;-0.196;2022-10-29T14:07:02;12.57;;;3.38;;
68144;SDS011;55400;51.824;-0.196;2022-10-29T14:09:46;15.27;;;3.47;;
68144;SDS011;55400;51.824;-0.196;2022-10-29T14:12:17;16.55;;;3.30;;
68144;SDS011;55400;51.824;-0.196;2022-10-29T14:17:26;8.60;;;3.03;;
68144;SDS011;55400;51.824;-0.196;2022-10-29T14:19:52;17.80;;;4.28;;
68144;SDS011;55400;51.824;-0.196;2022-10-29T14:25:00;16.33;;;3.97;;
68144;SDS011;55400;51.824;-0.196;2022-10-29T14:30:09;9.65;;;4.20;;
68144;SDS011;55400;51.824;-0.196;2022-10-29T14:32:39;22.27;;;7.65;;
68144;SDS011;55400;51.824;-0.196;2022-10-29T14:35:05;14.27;;;6.70;;
68144;SDS011;55400;51.824;-0.196;2022-10-29T14:37:32;9.32;;;3.50;;
68144;SDS011;55400;51.824;-0.196;2022-10-29T14:40:04;14.35;;;3.63;;
68144;SDS011;55400;51.824;-0.196;2022-10-29T14:42:42;11.30;;;3.40;;
68144;SDS011;55400;51.824;-0.196;2022-10-29T14:45:17;12.35;;;4.20;;
68144;SDS011;55400;51.824;-0.196;2022-10-29T14:47:46;12.38;;;3.47;;
68144;SDS011;55400;51.824;-0.196;2022-10-29T14:50:16;11.00;;;3.70;;
68144;SDS011;55400;51.824;-0.196;2022-10-29T14:52:46;13.57;;;4.00;;
68144;SDS011;55400;51.824;-0.196;2022-10-29T14:55:17;9.65;;;3.60;;
68144;SDS011;55400;51.824;-0.196;2022-10-29T14:57:48;13.18;;;3.85;;
68144;SDS011;55400;51.824;-0.196;2022-10-29T15:00:35;12.25;;;3.78;;
68144;SDS011;55400;51.824;-0.196;2022-10-29T15:03:05;12.05;;;3.60;;
68144;SDS011;55400;51.824;-0.196;2022-10-29T15:05:34;10.82;;;3.78;;
68144;SDS011;55400;51.824;-0.196;2022-10-29T15:08:11;13.05;;;3.13;;
68144;SDS011;55400;51.824;-0.196;2022-10-29T15:10:56;10.05;;;3.20;;
68144;SDS011;55400;51.824;-0.196;2022-10-29T15:13:23;13.63;;;3.40;;
68144;SDS011;55400;51.824;-0.196;2022-10-29T15:18:46;12.90;;;3.67;;
68144;SDS011;55400;51.824;-0.196;2022-10-29T15:21:20;8.75;;;3.25;;
68144;SDS011;55400;51.824;-0.196;2022-10-29T15:23:48;11.90;;;4.28;;
68144;SDS011;55400;51.824;-0.196;2022-10-29T15:26:19;11.32;;;3.38;;
68144;SDS011;55400;51.824;-0.196;2022-10-29T15:28:46;9.63;;;3.28;;
68144;SDS011;55400;51.824;-0.196;2022-10-29T15:33:59;8.60;;;3.17;;
68144;SDS011;55400;51.824;-0.196;2022-10-29T15:36:45;12.18;;;3.75;;
68144;SDS011;55400;51.824;-0.196;2022-10-29T15:39:22;14.02;;;3.65;;
68144;SDS011;55400;51.824;-0.196;2022-10-29T15:41:51;8.55;;;3.63;;
68144;SDS011;55400;51.824;-0.196;2022-10-29T15:44:34;8.87;;;4.37;;
68144;SDS011;55400;51.824;-0.196;2022-10-29T15:47:14;16.13;;;3.95;;
68144;SDS011;55400;51.824;-0.196;2022-10-29T15:49:53;10.60;;;3.45;;
68144;SDS011;55400;51.824;-0.196;2022-10-29T15:52:19;11.30;;;4.07;;
68144;SDS011;55400;51.824;-0.196;2022-10-29T15:54:48;17.13;;;3.92;;
68144;SDS011;55400;51.824;-0.196;2022-10-29T15:57:13;12.82;;;4.20;;
68144;SDS011;55400;51.824;-0.196;2022-10-29T15:59:40;27.13;;;10.73;;
68144;SDS011;55400;51.824;-0.196;2022-10-29T16:02:10;39.95;;;22.40;;
68144;SDS011;55400;51.824;-0.196;2022-10-29T16:04:36;66.28;;;29.85;;
68144;SDS011;55400;51.824;-0.196;2022-10-29T16:07:02;14.52;;;5.60;;
68144;SDS011;55400;51.824;-0.196;2022-10-29T16:09:28;15.13;;;3.92;;
68144;SDS011;55400;51.824;-0.196;2022-10-29T16:11:53;18.55;;;4.20;;
68144;SDS011;55400;51.824;-0.196;2022-10-29T16:14:19;13.23;;;5.30;;
68144;SDS011;55400;51.824;-0.196;2022-10-29T16:16:44;12.40;;;4.60;;
68144;SDS011;55400;51.824;-0.196;2022-10-29T16:19:10;12.35;;;4.20;;
68144;SDS011;55400;51.824;-0.196;2022-10-29T16:21:35;13.90;;;5.78;;
68144;SDS011;55400;51.824;-0.196;2022-10-29T16:24:00;9.75;;;3.80;;
68144;SDS011;55400;51.824;-0.196;2022-10-29T16:26:26;16.20;;;4.32;;
68144;SDS011;55400;51.824;-0.196;2022-10-29T16:28:51;13.55;;;4.90;;
68144;SDS011;55400;51.824;-0.196;2022-10-29T16:31:18;11.68;;;4.10;;
68144;SDS011;55400;51.824;-0.196;2022-10-29T16:33:45;10.48;;;3.97;;
68144;SDS011;55400;51.824;-0.196;2022-10-29T16:36:11;14.00;;;4.95;;
68144;SDS011;55400;51.824;-0.196;2022-10-29T16:38:37;11.20;;;4.07;;
68144;SDS011;55400;51.824;-0.196;2022-10-29T16:41:02;17.67;;;4.85;;
68144;SDS011;55400;51.824;-0.196;2022-10-29T16:43:28;11.00;;;4.20;;
68144;SDS011;55400;51.824;-0.196;2022-10-29T16:45:53;12.23;;;3.90;;
68144;SDS011;55400;51.824;-0.196;2022-10-29T16:48:19;12.60;;;4.78;;
68144;SDS011;55400;51.824;-0.196;2022-10-29T16:50:44;10.90;;;4.13;;
68144;SDS011;55400;51.824;-0.196;2022-10-29T16:53:10;12.60;;;4.10;;
68144;SDS011;55400;51.824;-0.196;2022-10-29T16:55:36;18.17;;;4.70;;
68144;SDS011;55400;51.824;-0.196;2022-10-29T16:58:21;11.45;;;4.25;;
68144;SDS011;55400;51.824;-0.196;2022-10-29T17:00:47;16.55;;;5.03;;
68144;SDS011;55400;51.824;-0.196;2022-10-29T17:03:13;20.20;;;5.28;;
68144;SDS011;55400;51.824;-0.196;2022-10-29T17:05:41;25.98;;;5.38;;
68144;SDS011;55400;51.824;-0.196;2022-10-29T17:08:08;22.08;;;5.15;;
68144;SDS011;55400;51.824;-0.196;2022-10-29T17:10:34;17.27;;;5.85;;
68144;SDS011;55400;51.824;-0.196;2022-10-29T17:13:00;19.40;;;5.18;;
68144;SDS011;55400;51.824;-0.196;2022-10-29T17:15:26;12.77;;;5.15;;
68144;SDS011;55400;51.824;-0.196;2022-10-29T17:17:51;14.40;;;5.28;;
68144;SDS011;55400;51.824;-0.196;2022-10-29T17:20:17;15.23;;;5.78;;
68144;SDS011;55400;51.824;-0.196;2022-10-29T17:22:42;16.77;;;5.45;;